createdAt,value
2023-03-03T00:01:35.573Z,5.32
2023-03-03T00:04:03.113Z,5.28
2023-03-03T00:06:30.584Z,4.57
2023-03-03T00:08:58.370Z,5.13
2023-03-03T00:11:25.881Z,4.88
2023-03-03T00:13:56.256Z,4.70
2023-03-03T00:16:27.913Z,4.68
2023-03-03T00:18:55.810Z,4.60
2023-03-03T00:21:29.397Z,5.38
2023-03-03T00:24:35.556Z,4.77
2023-03-03T00:27:25.519Z,5.88
2023-03-03T00:29:58.208Z,4.88
2023-03-03T00:32:42.400Z,5.03
2023-03-03T00:35:23.341Z,5.32
2023-03-03T00:37:54.781Z,4.32
2023-03-03T00:40:31.724Z,4.40
2023-03-03T00:43:00.890Z,4.82
2023-03-03T00:45:44.980Z,4.88
2023-03-03T00:48:27.801Z,5.17
2023-03-03T00:50:57.424Z,5.20
2023-03-03T00:53:27.158Z,5.35
2023-03-03T00:55:54.803Z,5.18
2023-03-03T00:58:23.951Z,4.93
2023-03-03T01:00:53.238Z,4.57
2023-03-03T01:03:26.039Z,4.82
2023-03-03T01:05:54.673Z,4.45
2023-03-03T01:08:22.920Z,5.18
2023-03-03T01:10:53.719Z,5.72
2023-03-03T01:13:27.134Z,5.25
2023-03-03T01:15:54.841Z,5.63
2023-03-03T01:18:22.160Z,5.93
2023-03-03T01:20:49.459Z,5.63
2023-03-03T01:23:16.820Z,5.03
2023-03-03T01:25:44.155Z,5.60
2023-03-03T01:28:11.536Z,5.35
2023-03-03T01:30:39.312Z,4.85
2023-03-03T01:33:06.600Z,5.55
2023-03-03T01:35:36.446Z,5.50
2023-03-03T01:38:03.961Z,4.70
2023-03-03T01:40:36.496Z,5.38
2023-03-03T01:43:04.377Z,5.18
2023-03-03T01:45:42.444Z,5.70
2023-03-03T01:48:38.700Z,5.05
2023-03-03T01:51:19.276Z,4.80
2023-03-03T01:53:57.733Z,4.78
2023-03-03T01:56:25.795Z,4.68
2023-03-03T01:59:27.982Z,5.45
2023-03-03T02:01:55.403Z,4.95
2023-03-03T02:04:23.058Z,4.38
2023-03-03T02:07:07.027Z,4.82
2023-03-03T02:09:55.274Z,3.92
2023-03-03T02:12:28.497Z,4.25
2023-03-03T02:14:55.749Z,4.07
2023-03-03T02:17:23.257Z,3.95
2023-03-03T02:20:14.444Z,3.95
2023-03-03T02:23:07.545Z,3.20
2023-03-03T02:25:52.385Z,4.05
2023-03-03T02:28:19.774Z,3.55
2023-03-03T02:30:47.574Z,4.10
2023-03-03T02:33:14.910Z,2.97
2023-03-03T02:35:42.593Z,3.53
2023-03-03T02:38:19.415Z,2.78
2023-03-03T02:41:09.330Z,3.25
2023-03-03T02:43:59.733Z,3.28
2023-03-03T02:46:28.542Z,3.20
2023-03-03T02:48:55.890Z,3.28
2023-03-03T02:51:23.185Z,3.03
2023-03-03T02:53:50.598Z,2.65
2023-03-03T02:56:17.920Z,2.53
2023-03-03T02:58:45.312Z,2.70
2023-03-03T03:01:12.789Z,3.03
2023-03-03T03:03:40.557Z,2.58
2023-03-03T03:06:08.098Z,3.20
2023-03-03T03:08:35.652Z,2.40
2023-03-03T03:11:03.751Z,2.65
2023-03-03T03:13:31.971Z,2.67
2023-03-03T03:15:59.780Z,2.35
2023-03-03T03:18:28.117Z,3.30
2023-03-03T03:20:55.446Z,2.45
2023-03-03T03:23:22.695Z,2.40
2023-03-03T03:25:50.291Z,2.72
2023-03-03T03:28:18.948Z,2.95
2023-03-03T03:30:46.231Z,2.40
2023-03-03T03:33:13.609Z,2.33
2023-03-03T03:35:45.512Z,2.50
2023-03-03T03:38:13.522Z,2.42
2023-03-03T03:40:42.004Z,2.85
2023-03-03T03:43:09.459Z,2.53
2023-03-03T03:45:36.830Z,2.00
2023-03-03T03:48:04.124Z,2.75
2023-03-03T03:50:31.827Z,2.65
2023-03-03T03:52:59.105Z,2.92
2023-03-03T03:55:26.387Z,2.38
2023-03-03T03:57:53.581Z,2.78
2023-03-03T04:00:21.069Z,4.03
2023-03-03T04:02:48.923Z,2.53
2023-03-03T04:05:17.553Z,2.50
2023-03-03T04:07:45.172Z,3.67
2023-03-03T04:10:12.514Z,2.42
2023-03-03T04:12:39.844Z,2.53
2023-03-03T04:15:10.808Z,1.98
2023-03-03T04:17:38.241Z,2.40
2023-03-03T04:20:06.832Z,2.45
2023-03-03T04:22:36.011Z,2.78
2023-03-03T04:25:07.340Z,2.50
2023-03-03T04:27:36.034Z,2.45
2023-03-03T04:30:05.439Z,2.83
2023-03-03T04:32:34.322Z,1.88
2023-03-03T04:35:08.092Z,2.50
2023-03-03T04:37:36.640Z,2.10
2023-03-03T04:40:08.183Z,2.05
2023-03-03T04:42:35.914Z,2.47
2023-03-03T04:45:04.330Z,2.45
2023-03-03T04:47:32.625Z,2.25
2023-03-03T04:50:00.824Z,3.00
2023-03-03T04:52:28.699Z,2.13
2023-03-03T04:54:56.247Z,2.35
2023-03-03T04:57:23.560Z,2.90
2023-03-03T04:59:51.534Z,2.47
2023-03-03T05:02:18.824Z,2.33
2023-03-03T05:04:46.238Z,2.05
2023-03-03T05:07:13.706Z,2.78
2023-03-03T05:09:40.913Z,2.40
2023-03-03T05:12:08.314Z,2.75
2023-03-03T05:14:35.555Z,2.58
2023-03-03T05:17:04.669Z,2.58
2023-03-03T05:19:32.246Z,1.92
2023-03-03T05:22:00.310Z,2.55
2023-03-03T05:24:27.787Z,2.40
2023-03-03T05:26:55.303Z,2.53
2023-03-03T05:29:22.615Z,2.72
2023-03-03T05:31:50.257Z,2.65
2023-03-03T05:34:17.661Z,3.00
2023-03-03T05:36:45.051Z,3.63
2023-03-03T05:39:12.449Z,2.83
2023-03-03T05:41:40.341Z,2.90
2023-03-03T05:44:07.892Z,2.55
2023-03-03T05:46:35.345Z,2.67
2023-03-03T05:49:02.845Z,3.00
2023-03-03T05:51:30.219Z,2.50
2023-03-03T05:53:57.552Z,3.22
2023-03-03T05:56:24.874Z,4.20
2023-03-03T05:58:52.178Z,2.55
2023-03-03T06:01:19.509Z,3.00
2023-03-03T06:03:46.813Z,2.78
2023-03-03T06:06:16.975Z,3.22
2023-03-03T06:08:44.207Z,3.42
2023-03-03T06:11:13.066Z,3.50
2023-03-03T06:13:42.611Z,3.42
2023-03-03T06:16:09.935Z,3.53
2023-03-03T06:18:37.735Z,3.40
2023-03-03T06:21:05.133Z,3.05
2023-03-03T06:23:32.454Z,3.45
2023-03-03T06:25:59.896Z,2.97
2023-03-03T06:28:27.249Z,3.85
2023-03-03T06:30:57.960Z,3.83
2023-03-03T06:33:25.235Z,3.63
2023-03-03T06:35:54.131Z,3.53
2023-03-03T06:38:21.707Z,4.40
2023-03-03T06:40:48.960Z,3.75
2023-03-03T06:43:16.319Z,3.55
2023-03-03T06:45:45.532Z,3.50
2023-03-03T06:48:12.756Z,3.80
2023-03-03T06:50:40.068Z,3.95
2023-03-03T06:53:16.409Z,4.20
2023-03-03T06:55:45.072Z,4.03
2023-03-03T06:58:17.998Z,3.63
2023-03-03T07:00:52.007Z,3.53
2023-03-03T07:03:23.742Z,3.35
2023-03-03T07:05:52.198Z,4.05
2023-03-03T07:08:23.170Z,3.45
2023-03-03T07:10:52.202Z,3.80
2023-03-03T07:13:28.210Z,3.38
2023-03-03T07:15:59.084Z,5.18
2023-03-03T07:18:35.331Z,3.20
2023-03-03T07:21:30.655Z,3.95
2023-03-03T07:24:00.104Z,3.20
2023-03-03T07:26:33.218Z,3.10
2023-03-03T07:29:27.844Z,3.15
2023-03-03T07:31:58.009Z,4.15
2023-03-03T07:34:37.451Z,3.20
2023-03-03T07:37:18.602Z,2.88
2023-03-03T07:39:47.447Z,2.97
2023-03-03T07:42:28.781Z,4.07
2023-03-03T07:45:00.781Z,3.75
2023-03-03T07:47:35.807Z,5.03
2023-03-03T07:50:16.577Z,7.88
2023-03-03T07:53:00.404Z,5.75
2023-03-03T07:55:35.520Z,5.18
2023-03-03T07:58:12.749Z,4.43
2023-03-03T08:01:04.814Z,3.17
2023-03-03T08:03:35.612Z,4.85
2023-03-03T08:06:29.997Z,4.18
2023-03-03T08:09:12.935Z,3.40
2023-03-03T08:12:22.655Z,4.80
2023-03-03T08:14:52.706Z,3.35
2023-03-03T08:17:23.482Z,3.42
2023-03-03T08:19:53.005Z,3.28
2023-03-03T08:22:36.081Z,3.38
2023-03-03T08:25:03.620Z,3.13
2023-03-03T08:27:30.877Z,3.50
2023-03-03T08:29:58.148Z,3.78
2023-03-03T08:32:25.626Z,3.97
2023-03-03T08:34:52.929Z,3.20
2023-03-03T08:37:20.201Z,3.28
2023-03-03T08:39:47.492Z,3.65
2023-03-03T08:42:16.232Z,4.93
2023-03-03T08:44:43.616Z,3.30
2023-03-03T08:47:10.822Z,4.70
2023-03-03T08:49:38.051Z,6.55
2023-03-03T08:52:05.452Z,3.70
2023-03-03T08:54:32.742Z,5.85
2023-03-03T08:57:00.107Z,2.90
2023-03-03T08:59:27.349Z,3.08
2023-03-03T09:01:55.124Z,2.90
2023-03-03T09:04:22.504Z,3.42
2023-03-03T09:06:49.792Z,2.72
2023-03-03T09:09:17.110Z,3.28
2023-03-03T09:11:44.443Z,4.68
2023-03-03T09:14:15.077Z,3.13
2023-03-03T09:16:49.646Z,2.90
2023-03-03T09:19:30.583Z,3.13
2023-03-03T09:22:03.380Z,2.83
2023-03-03T09:24:31.960Z,2.80
2023-03-03T09:26:59.805Z,3.35
2023-03-03T09:29:29.923Z,2.70
2023-03-03T09:32:22.165Z,4.57
2023-03-03T09:34:49.480Z,3.05
2023-03-03T09:37:23.571Z,3.10
2023-03-03T09:39:53.957Z,4.10
2023-03-03T09:43:04.706Z,3.72
2023-03-03T09:45:53.627Z,4.28
2023-03-03T09:48:44.477Z,4.95
2023-03-03T09:51:47.074Z,6.15
2023-03-03T09:54:37.305Z,5.03
2023-03-03T09:57:29.811Z,4.82
2023-03-03T10:00:17.931Z,5.65
2023-03-03T10:03:15.573Z,5.03
2023-03-03T10:06:04.088Z,4.70
2023-03-03T10:08:42.528Z,4.95
2023-03-03T10:11:23.269Z,5.50
2023-03-03T10:14:09.849Z,5.07
2023-03-03T10:17:05.371Z,3.78
2023-03-03T10:19:41.644Z,3.80
2023-03-03T10:22:44.356Z,4.18
2023-03-03T10:25:23.558Z,3.97
2023-03-03T10:28:31.433Z,4.25
2023-03-03T10:31:20.824Z,3.80
2023-03-03T10:33:54.117Z,3.95
2023-03-03T10:36:24.613Z,3.03
2023-03-03T10:38:55.912Z,3.20
2023-03-03T10:41:48.429Z,2.45
2023-03-03T10:44:32.867Z,2.60
2023-03-03T10:47:23.936Z,2.53
2023-03-03T10:49:54.187Z,3.63
2023-03-03T10:52:42.685Z,3.30
2023-03-03T10:55:49.875Z,2.50
2023-03-03T10:58:53.314Z,2.47
2023-03-03T11:01:49.320Z,2.88
2023-03-03T11:04:24.526Z,2.78
2023-03-03T11:06:54.792Z,2.00
2023-03-03T11:09:44.073Z,1.92
2023-03-03T11:12:38.908Z,1.95
2023-03-03T11:15:22.887Z,2.55
2023-03-03T11:18:08.430Z,2.00
2023-03-03T11:21:07.495Z,2.70
2023-03-03T11:24:07.190Z,1.30
2023-03-03T11:27:03.591Z,1.95
2023-03-03T11:29:51.148Z,2.95
2023-03-03T11:32:24.376Z,2.50
2023-03-03T11:35:18.567Z,1.73
2023-03-03T11:37:57.528Z,2.38
2023-03-03T11:40:48.670Z,1.83
2023-03-03T11:43:33.843Z,1.83
2023-03-03T11:46:36.450Z,1.88
2023-03-03T11:49:17.210Z,2.50
2023-03-03T11:51:56.247Z,2.38
2023-03-03T11:54:38.457Z,1.98
2023-03-03T11:57:38.006Z,2.10
2023-03-03T12:00:26.644Z,1.60
2023-03-03T12:03:10.918Z,1.73
2023-03-03T12:06:04.181Z,1.40
2023-03-03T12:08:54.329Z,1.77
2023-03-03T12:11:27.457Z,1.17
2023-03-03T12:14:07.044Z,1.63
2023-03-03T12:16:49.917Z,1.23
2023-03-03T12:19:35.624Z,1.40
2023-03-03T12:22:20.387Z,1.27
2023-03-03T12:25:01.986Z,1.20
2023-03-03T12:28:02.926Z,2.63
2023-03-03T12:30:56.812Z,1.40
2023-03-03T12:33:28.047Z,1.20
2023-03-03T12:36:23.327Z,1.60
2023-03-03T12:39:34.424Z,1.25
2023-03-03T12:42:22.069Z,1.20
2023-03-03T12:45:10.308Z,1.02
2023-03-03T12:47:43.210Z,1.20
2023-03-03T12:50:27.483Z,1.65
2023-03-03T12:53:10.233Z,0.98
2023-03-03T12:56:09.962Z,0.82
2023-03-03T12:58:57.016Z,1.17
2023-03-03T13:01:34.898Z,1.40
2023-03-03T13:04:29.927Z,1.50
2023-03-03T13:07:20.079Z,1.23
2023-03-03T13:10:23.933Z,1.42
2023-03-03T13:13:08.961Z,1.45
2023-03-03T13:21:13.942Z,1.45
2023-03-03T13:24:09.808Z,2.50
2023-03-03T13:26:43.325Z,1.70
2023-03-03T13:29:19.176Z,1.38
2023-03-03T13:32:14.652Z,1.17
2023-03-03T13:35:00.897Z,1.60
2023-03-03T13:37:43.328Z,1.42
2023-03-03T13:40:13.772Z,1.55
2023-03-03T13:42:47.421Z,1.67
2023-03-03T13:45:54.276Z,1.05
2023-03-03T13:48:27.321Z,1.02
2023-03-03T13:51:19.634Z,1.77
2023-03-03T13:54:05.686Z,0.77
2023-03-03T13:56:42.919Z,1.23
2023-03-03T13:59:48.243Z,1.15
2023-03-03T14:02:43.123Z,1.13
2023-03-03T14:05:33.341Z,1.27
2023-03-03T14:08:13.851Z,1.42
2023-03-03T14:11:02.337Z,1.02
2023-03-03T14:13:35.216Z,1.25
2023-03-03T14:16:33.193Z,0.85
2023-03-03T14:19:22.632Z,0.75
2023-03-03T14:22:13.243Z,1.42
2023-03-03T14:25:01.863Z,1.17
2023-03-03T14:27:35.901Z,1.35
2023-03-03T14:30:21.951Z,0.80
2023-03-03T14:33:20.447Z,1.40
2023-03-03T14:35:59.876Z,1.42
2023-03-03T14:38:33.372Z,0.88
2023-03-03T14:41:14.756Z,0.60
2023-03-03T14:43:57.793Z,0.80
2023-03-03T14:46:29.151Z,0.77
2023-03-03T14:49:29.483Z,0.98
2023-03-03T14:52:03.776Z,0.95
2023-03-03T14:54:39.727Z,0.47
2023-03-03T14:57:19.719Z,1.30
2023-03-03T15:00:10.645Z,1.00
2023-03-03T15:02:48.088Z,2.10
2023-03-03T15:05:25.223Z,0.75
2023-03-03T15:07:58.752Z,0.60
2023-03-03T15:10:46.338Z,2.25
2023-03-03T15:13:35.266Z,1.00
2023-03-03T15:16:04.527Z,1.15
2023-03-03T15:18:33.308Z,1.35
2023-03-03T15:21:05.301Z,1.10
2023-03-03T15:23:48.105Z,1.50
2023-03-03T15:26:24.485Z,1.13
2023-03-03T15:29:24.170Z,0.88
2023-03-03T15:32:49.097Z,1.20
2023-03-03T15:35:27.783Z,1.83
2023-03-03T15:37:54.985Z,1.20
2023-03-03T15:40:37.486Z,1.13
2023-03-03T15:43:16.612Z,1.23
2023-03-03T15:46:28.098Z,1.10
2023-03-03T15:48:58.089Z,0.88
2023-03-03T15:52:03.230Z,0.93
2023-03-03T15:54:58.721Z,0.60
2023-03-03T15:57:54.403Z,0.70
2023-03-03T16:01:10.801Z,0.95
2023-03-03T16:03:46.479Z,0.90
2023-03-03T16:06:33.546Z,1.63
2023-03-03T16:09:06.667Z,0.82
2023-03-03T16:12:10.657Z,0.98
2023-03-03T16:15:07.209Z,0.88
2023-03-03T16:17:46.310Z,0.77
2023-03-03T16:20:25.502Z,0.75
2023-03-03T16:23:28.126Z,0.88
2023-03-03T16:25:58.402Z,3.03
2023-03-03T16:28:43.890Z,1.15
2023-03-03T16:31:38.434Z,0.70
2023-03-03T16:34:36.678Z,1.02
2023-03-03T16:37:12.802Z,0.85
2023-03-03T16:40:31.844Z,0.95
2023-03-03T16:43:59.135Z,1.00
2023-03-03T16:46:39.285Z,1.55
2023-03-03T16:49:34.422Z,1.02
2023-03-03T16:52:15.242Z,0.95
2023-03-03T16:54:55.693Z,0.70
2023-03-03T16:57:28.834Z,1.23
2023-03-03T17:00:09.191Z,0.82
2023-03-03T17:02:51.454Z,1.38
2023-03-03T17:05:33.553Z,0.73
2023-03-03T17:08:24.342Z,0.85
2023-03-03T17:10:55.653Z,1.15
2023-03-03T17:13:44.042Z,0.80
2023-03-03T17:16:37.046Z,1.58
2023-03-03T17:19:28.610Z,1.08
2023-03-03T17:22:16.115Z,0.82
2023-03-03T17:24:43.287Z,1.02
2023-03-03T17:27:31.668Z,0.90
2023-03-03T17:30:26.890Z,0.85
2023-03-03T17:33:19.338Z,1.00
2023-03-03T17:36:22.760Z,1.65
2023-03-03T17:39:12.952Z,1.20
2023-03-03T17:41:53.893Z,1.30
2023-03-03T17:44:29.684Z,1.95
2023-03-03T17:47:03.970Z,1.00
2023-03-03T17:50:00.979Z,0.93
2023-03-03T17:52:39.725Z,1.98
2023-03-03T17:55:44.189Z,1.25
2023-03-03T17:58:33.054Z,1.63
2023-03-03T18:01:21.493Z,1.48
2023-03-03T18:04:30.561Z,1.10
2023-03-03T18:07:18.794Z,1.00
2023-03-03T18:09:57.864Z,1.20
2023-03-03T18:12:43.956Z,1.67
2023-03-03T18:15:37.915Z,1.30
2023-03-03T18:18:23.758Z,1.42
2023-03-03T18:21:00.224Z,1.70
2023-03-03T18:23:43.822Z,1.63
2023-03-03T18:26:40.321Z,0.82
2023-03-03T18:29:28.596Z,2.00
2023-03-03T18:31:58.630Z,1.90
2023-03-03T18:34:35.675Z,1.42
2023-03-03T18:37:29.685Z,1.00
2023-03-03T18:40:02.734Z,1.02
2023-03-03T18:42:43.019Z,2.40
2023-03-03T18:45:23.035Z,2.15
2023-03-03T18:48:12.661Z,1.70
2023-03-03T18:50:48.914Z,3.55
2023-03-03T18:53:29.944Z,2.30
2023-03-03T18:55:59.395Z,1.55
2023-03-03T18:58:38.092Z,2.60
2023-03-03T19:01:36.296Z,3.15
2023-03-03T19:04:20.326Z,1.27
2023-03-03T19:06:53.369Z,1.73
2023-03-03T19:09:46.663Z,1.77
2023-03-03T19:12:17.422Z,1.80
2023-03-03T19:14:48.997Z,1.50
2023-03-03T19:17:26.389Z,1.08
2023-03-03T19:20:15.155Z,3.55
2023-03-03T19:23:11.842Z,13.93
2023-03-03T19:25:39.348Z,17.02
2023-03-03T19:28:23.438Z,14.45
2023-03-03T19:31:03.216Z,11.17
2023-03-03T19:33:54.552Z,22.98
2023-03-03T19:36:26.174Z,18.60
2023-03-03T19:38:56.466Z,20.13
2023-03-03T19:41:40.384Z,20.83
2023-03-03T19:44:27.691Z,16.25
2023-03-03T19:47:06.587Z,14.73
2023-03-03T19:50:08.022Z,16.88
2023-03-03T19:52:41.737Z,19.13
2023-03-03T19:55:39.272Z,18.40
2023-03-03T19:58:14.120Z,18.38
2023-03-03T20:00:48.253Z,18.27
2023-03-03T20:03:21.072Z,21.15
2023-03-03T20:05:56.247Z,21.00
2023-03-03T20:08:29.615Z,21.27
2023-03-03T20:11:18.604Z,23.13
2023-03-03T20:13:45.783Z,17.40
2023-03-03T20:16:41.446Z,18.05
2023-03-03T20:19:15.745Z,17.45
2023-03-03T20:21:52.079Z,17.70
2023-03-03T20:24:46.951Z,17.88
2023-03-03T20:27:45.886Z,17.05
2023-03-03T20:30:19.213Z,16.42
2023-03-03T20:32:57.616Z,20.58
2023-03-03T20:35:42.654Z,17.50
2023-03-03T20:40:46.680Z,18.23
2023-03-03T20:43:35.763Z,17.52
2023-03-03T20:46:24.764Z,14.57
2023-03-03T20:49:40.401Z,17.23
2023-03-03T20:52:13.682Z,20.95
2023-03-03T20:55:10.664Z,19.05
2023-03-03T20:58:05.154Z,18.40
2023-03-03T21:00:43.982Z,18.08
2023-03-03T21:03:34.290Z,21.98
2023-03-03T21:06:17.767Z,23.20
2023-03-03T21:08:46.822Z,20.42
2023-03-03T21:11:15.774Z,19.73
2023-03-03T21:13:45.901Z,18.17
2023-03-03T21:16:35.548Z,18.67
2023-03-03T21:19:10.480Z,19.65
2023-03-03T21:21:40.117Z,19.95
2023-03-03T21:24:13.134Z,19.30
2023-03-03T21:26:58.682Z,18.42
2023-03-03T21:29:31.649Z,18.48
2023-03-03T21:32:02.078Z,16.20
2023-03-03T21:34:30.710Z,18.58
2023-03-03T21:37:03.124Z,16.75
2023-03-03T21:39:34.809Z,24.88
2023-03-03T21:42:03.648Z,18.23
2023-03-03T21:44:57.030Z,19.25
2023-03-03T21:47:27.798Z,16.35
2023-03-03T21:49:55.061Z,18.63
2023-03-03T21:52:23.490Z,18.33
2023-03-03T21:54:51.921Z,14.52
2023-03-03T21:57:19.354Z,16.58
2023-03-03T21:59:46.851Z,16.63
2023-03-03T22:02:14.404Z,15.52
2023-03-03T22:04:42.328Z,13.77
2023-03-03T22:07:10.190Z,13.10
2023-03-03T22:09:38.309Z,15.02
2023-03-03T22:12:06.478Z,19.42
2023-03-03T22:14:33.955Z,14.00
2023-03-03T22:17:01.533Z,15.65
2023-03-03T22:19:28.813Z,12.30
2023-03-03T22:21:56.120Z,14.05
2023-03-03T22:24:23.425Z,12.35
2023-03-03T22:26:50.703Z,12.73
2023-03-03T22:29:22.770Z,14.48
2023-03-03T22:31:51.265Z,12.82
2023-03-03T22:34:18.893Z,11.63
2023-03-03T22:36:46.124Z,10.40
2023-03-03T22:39:13.411Z,13.25
2023-03-03T22:41:40.669Z,11.00
2023-03-03T22:44:08.076Z,13.10
2023-03-03T22:46:35.481Z,9.45
2023-03-03T22:49:02.877Z,10.45
2023-03-03T22:51:30.168Z,11.98
2023-03-03T22:53:57.475Z,10.73
2023-03-03T22:56:24.776Z,10.63
2023-03-03T22:58:52.095Z,8.57
2023-03-03T23:01:19.350Z,11.05
2023-03-03T23:03:46.613Z,10.00
2023-03-03T23:06:13.933Z,10.23
2023-03-03T23:08:41.224Z,9.50
2023-03-03T23:11:08.513Z,9.98
2023-03-03T23:13:35.858Z,9.82
2023-03-03T23:16:03.395Z,8.48
2023-03-03T23:18:30.704Z,9.50
2023-03-03T23:20:57.978Z,8.13
2023-03-03T23:23:25.250Z,8.23
2023-03-03T23:25:52.509Z,6.68
2023-03-03T23:28:19.886Z,8.38
2023-03-03T23:30:47.158Z,6.63
2023-03-03T23:33:14.718Z,8.63
2023-03-03T23:35:42.168Z,9.23
2023-03-03T23:38:15.153Z,8.00
2023-03-03T23:40:43.008Z,7.25
2023-03-03T23:43:10.393Z,6.88
2023-03-03T23:45:37.637Z,8.85
2023-03-03T23:48:05.454Z,6.75
2023-03-03T23:50:34.153Z,8.45
2023-03-03T23:53:01.369Z,6.78
2023-03-03T23:55:28.653Z,7.97
2023-03-03T23:57:55.997Z,6.43
